Time;durP1;ratioP1;P1;durP2;ratioP2;P2;SDS_P1;SDS_P2;PMS_P1;PMS_P2;Temp;Humidity;BMP_temperature;BMP_pressure;BME280_temperature;BME280_humidity;BME280_pressure;Samples;Min_cycle;Max_cycle;Signal;HPM_P1;HPM_P2
2023/05/25 00:05:27;;;;;;;23.10;15.20;;;;;;;11.90;80.47;99091.83;437761;1253;111359;-42
2023/05/25 00:15:31;;;;;;;23.30;15.30;;;;;;;11.94;80.43;99092.48;438215;1261;107749;-42
2023/05/25 00:25:35;;;;;;;29.30;17.00;;;;;;;11.96;80.55;99103.70;437152;1251;98012;-41
2023/05/25 00:35:38;;;;;;;24.50;15.90;;;;;;;11.99;80.62;99114.50;436859;1254;108050;-43
2023/05/25 00:45:42;;;;;;;28.90;17.40;;;;;;;11.90;80.43;99108.20;437384;1254;99343;-42
2023/05/25 00:56:02;;;;;;;22.10;15.20;;;;;;;11.86;80.36;99100.52;436567;1252;111939;-42
2023/05/25 01:06:09;;;;;;;22.20;13.90;;;;;;;11.86;80.59;99087.86;436085;1254;108516;-42
2023/05/25 01:16:14;;;;;;;25.70;15.50;;;;;;;11.86;80.73;99080.35;435956;1251;99215;-43
2023/05/25 01:26:20;;;;;;;26.20;15.70;;;;;;;11.94;80.77;99092.45;436877;1249;108246;-41
2023/05/25 01:36:24;;;;;;;19.60;13.80;;;;;;;11.97;80.78;99091.21;435443;1254;99212;-41
2023/05/25 01:46:27;;;;;;;19.70;14.90;;;;;;;11.89;80.67;99093.59;435406;1250;112635;-46
2023/05/25 01:56:34;;;;;;;22.40;14.70;;;;;;;11.81;80.53;99095.40;435286;1251;107756;-42
2023/05/25 02:06:38;;;;;;;17.70;13.60;;;;;;;11.79;80.66;99085.39;435171;1254;99278;-42
2023/05/25 02:26:46;;;;;;;18.10;13.20;;;;;;;11.76;80.79;99095.87;435276;1253;99223;-41
2023/05/25 02:36:50;;;;;;;22.30;13.70;;;;;;;11.78;80.78;99101.02;435351;1254;111881;-41
2023/05/25 02:46:53;;;;;;;18.10;14.00;;;;;;;11.82;80.86;99108.15;435208;1254;108199;-43
2023/05/25 02:56:57;;;;;;;27.90;15.30;;;;;;;11.71;80.85;99113.09;435306;1250;98018;-43
2023/05/25 03:07:01;;;;;;;23.10;14.20;;;;;;;11.64;80.66;99112.96;435281;1254;107432;-43
2023/05/25 03:17:06;;;;;;;21.00;12.60;;;;;;;11.55;80.88;99113.33;435760;1254;99217;-42
2023/05/25 03:27:10;;;;;;;21.60;13.50;;;;;;;11.52;80.96;99120.34;435251;1254;111871;-42
2023/05/25 03:37:18;;;;;;;18.40;13.30;;;;;;;11.47;81.34;99126.57;435480;1251;106970;-42
2023/05/25 03:47:21;;;;;;;19.60;15.20;;;;;;;11.41;81.36;99127.27;434775;1256;622619;-41
2023/05/25 03:57:25;;;;;;;26.00;17.80;;;;;;;11.34;81.53;99133.48;435177;1249;109341;-43
2023/05/25 04:07:29;;;;;;;26.00;17.80;;;;;;;11.32;81.63;99137.48;435261;1255;99319;-43
2023/05/25 04:17:34;;;;;;;28.00;19.40;;;;;;;11.22;82.16;99142.51;435260;1250;111966;-42
2023/05/25 04:27:45;;;;;;;32.50;21.40;;;;;;;11.21;82.28;99140.69;435616;1250;106625;-41
2023/05/25 04:37:50;;;;;;;34.00;22.30;;;;;;;11.28;82.35;99147.84;435158;1251;98491;-42
2023/05/25 04:47:56;;;;;;;38.90;23.80;;;;;;;11.30;82.49;99154.90;435296;1250;108442;-43
2023/05/25 04:58:00;;;;;;;33.30;21.10;;;;;;;11.28;82.67;99170.00;435276;1249;99216;-41
2023/05/25 05:08:04;;;;;;;32.80;23.20;;;;;;;11.32;82.72;99168.23;435126;1250;111476;-43
2023/05/25 05:18:08;;;;;;;32.10;22.30;;;;;;;11.30;83.02;99184.23;435217;1250;106584;-41
2023/05/25 05:28:12;;;;;;;38.00;23.60;;;;;;;11.31;83.05;99195.42;435256;1256;99234;-42
2023/05/25 05:38:15;;;;;;;43.10;22.90;;;;;;;11.34;83.32;99202.96;435168;1264;108045;-42
2023/05/25 05:48:20;;;;;;;42.80;25.90;;;;;;;11.42;83.20;99207.61;435337;1250;99221;-41
2023/05/25 06:08:29;;;;;;;38.80;23.30;;;;;;;11.50;83.52;99212.29;435092;1254;108356;-42
2023/05/25 06:18:33;;;;;;;33.90;23.10;;;;;;;11.54;83.49;99215.48;435248;1250;99219;-43
2023/05/25 06:28:38;;;;;;;39.10;23.90;;;;;;;11.59;83.51;99224.81;435463;1251;108522;-42
2023/05/25 06:38:41;;;;;;;37.60;23.20;;;;;;;11.94;83.59;99229.61;435232;1249;99308;-42
2023/05/25 06:48:46;;;;;;;36.40;21.70;;;;;;;12.38;83.57;99222.02;435310;1254;112929;-42
2023/05/25 06:58:49;;;;;;;29.70;19.20;;;;;;;12.69;83.40;99221.09;435428;1254;108431;-42
2023/05/25 07:08:54;;;;;;;26.50;17.20;;;;;;;12.94;83.01;99218.14;435263;1254;99233;-43
2023/05/25 07:18:58;;;;;;;28.10;17.90;;;;;;;13.32;82.72;99221.34;435501;1253;108631;-43
2023/05/25 07:29:04;;;;;;;22.30;14.70;;;;;;;13.42;82.28;99230.17;435335;1256;99334;-42
2023/05/25 07:49:14;;;;;;;43.20;17.20;;;;;;;13.64;82.48;99232.22;435335;1254;108591;-42
2023/05/25 07:59:18;;;;;;;18.80;12.80;;;;;;;13.69;81.91;99238.01;435453;1252;99231;-42
2023/05/25 08:09:22;;;;;;;22.30;14.50;;;;;;;13.87;81.95;99234.08;435263;1253;108724;-42
2023/05/25 08:19:26;;;;;;;37.30;13.80;;;;;;;14.11;81.79;99233.58;435315;1254;99266;-43
2023/05/25 08:29:30;;;;;;;21.10;12.30;;;;;;;14.13;81.60;99235.52;435242;1251;111975;-43
2023/05/25 08:39:34;;;;;;;18.00;11.90;;;;;;;14.06;81.46;99244.54;435383;1254;108381;-42
2023/05/25 08:49:40;;;;;;;19.10;11.90;;;;;;;14.11;81.32;99242.52;435481;1254;99498;-42
2023/05/25 08:59:51;;;;;;;19.50;11.50;;;;;;;14.39;81.21;99242.87;435279;1255;107902;-43
2023/05/25 09:09:54;;;;;;;17.80;12.10;;;;;;;14.48;80.80;99246.25;435165;1250;99270;-41
2023/05/25 09:19:59;;;;;;;38.90;15.10;;;;;;;14.61;80.75;99245.73;435586;1256;112037;-41
2023/05/25 09:30:04;;;;;;;19.60;13.70;;;;;;;14.64;80.27;99253.65;435669;1254;108397;-42
2023/05/25 09:40:10;;;;;;;20.20;14.40;;;;;;;14.89;80.07;99253.59;435357;1253;98821;-42
2023/05/25 09:50:16;;;;;;;21.40;14.30;;;;;;;14.86;79.91;99261.46;435356;1250;107523;-41
2023/05/25 10:00:19;;;;;;;20.10;15.00;;;;;;;14.94;79.88;99262.13;435232;1250;99117;-42
2023/05/25 10:10:23;;;;;;;19.30;13.70;;;;;;;14.94;79.52;99264.11;435341;1253;111542;-41
2023/05/25 10:20:27;;;;;;;28.40;15.40;;;;;;;15.13;79.31;99270.89;435299;1253;107556;-42
2023/05/25 10:40:39;;;;;;;19.50;15.60;;;;;;;15.45;78.79;99270.29;435415;1256;108604;-42
2023/05/25 11:01:01;;;;;;;19.10;13.30;;;;;;;15.94;77.84;99261.99;435217;1256;112049;-43
2023/05/25 11:11:05;;;;;;;22.60;15.30;;;;;;;16.21;77.60;99263.67;435255;1254;107171;-41
2023/05/25 11:21:12;;;;;;;24.40;17.70;;;;;;;16.26;77.15;99262.94;435315;1251;99347;-42
2023/05/25 11:31:18;;;;;;;20.00;14.90;;;;;;;16.27;76.38;99259.84;435606;1253;107809;-41
2023/05/25 11:41:23;;;;;;;19.20;15.70;;;;;;;16.30;76.01;99255.93;435234;1266;99309;-43
2023/05/25 11:51:28;;;;;;;21.60;15.70;;;;;;;16.46;75.72;99249.89;435508;1250;111738;-42
2023/05/25 12:01:32;;;;;;;20.40;16.20;;;;;;;16.38;75.30;99246.30;435232;1254;108468;-42
2023/05/25 12:11:44;;;;;;;18.90;15.00;;;;;;;16.30;75.14;99247.02;435216;1256;99225;-42
2023/05/25 12:31:53;;;;;;;20.10;15.20;;;;;;;16.65;74.78;99251.31;435486;1251;99237;-42
2023/05/25 12:41:58;;;;;;;16.70;13.80;;;;;;;16.85;74.41;99239.80;435116;1256;111662;-42
2023/05/25 12:52:03;;;;;;;17.40;14.60;;;;;;;17.40;74.09;99233.59;435232;1256;107751;-43
2023/05/25 13:02:07;;;;;;;20.90;14.10;;;;;;;17.52;73.58;99226.38;435355;1256;98837;-42
2023/05/25 13:12:11;;;;;;;20.30;15.00;;;;;;;17.82;72.85;99220.77;435288;1250;108306;-42
2023/05/25 13:22:15;;;;;;;18.20;14.20;;;;;;;17.97;72.16;99208.18;435310;1250;99744;-42
2023/05/25 13:42:26;;;;;;;21.00;13.30;;;;;;;18.57;71.18;99182.52;435388;1250;107735;-42
2023/05/25 13:52:30;;;;;;;19.10;14.50;;;;;;;18.78;70.32;99176.80;435394;1263;99246;-42
2023/05/25 14:02:33;;;;;;;17.70;13.20;;;;;;;18.78;69.75;99174.81;435200;1250;107490;-43
2023/05/25 14:12:39;;;;;;;16.30;14.30;;;;;;;18.83;69.30;99172.39;435369;1256;99221;-43
2023/05/25 14:22:43;;;;;;;20.10;14.00;;;;;;;18.73;69.12;99167.58;435221;1253;111408;-42
2023/05/25 14:32:49;;;;;;;21.80;11.80;;;;;;;18.75;68.89;99168.55;435250;1257;108131;-43
2023/05/25 14:52:57;;;;;;;16.00;13.60;;;;;;;18.77;68.89;99155.74;435304;1256;108501;-43
2023/05/25 15:03:05;;;;;;;18.00;13.50;;;;;;;18.65;68.87;99150.27;435180;1253;99243;-42
2023/05/25 15:13:10;;;;;;;16.50;12.30;;;;;;;18.59;69.38;99150.20;435387;1264;111206;-43
2023/05/25 15:23:16;;;;;;;14.60;11.10;;;;;;;18.72;69.24;99142.09;435127;1254;108823;-43
2023/05/25 15:33:20;;;;;;;15.20;12.30;;;;;;;18.71;68.99;99148.98;435255;1254;99221;-41
2023/05/25 15:43:38;;;;;;;16.60;12.70;;;;;;;18.57;68.90;99148.45;422938;1293;635931;-43
2023/05/25 15:53:46;;;;;;;24.60;13.00;;;;;;;18.54;69.05;99144.16;432974;1264;450162;-42
2023/05/25 16:03:54;;;;;;;14.80;12.60;;;;;;;18.63;68.65;99132.21;434109;1260;108158;-41
2023/05/25 16:14:02;;;;;;;19.80;13.10;;;;;;;18.42;68.40;99126.27;433987;1261;107713;-43
2023/05/25 16:24:09;;;;;;;16.50;11.60;;;;;;;18.31;68.45;99125.10;433985;1256;95693;-43
2023/05/25 16:34:16;;;;;;;17.90;10.70;;;;;;;18.27;68.63;99125.42;433953;1262;106424;-43
2023/05/25 16:44:23;;;;;;;17.20;12.80;;;;;;;18.09;68.65;99119.16;433991;1263;107757;-42
2023/05/25 16:54:30;;;;;;;17.60;13.00;;;;;;;17.93;68.61;99115.86;433723;1262;95460;-42
2023/05/25 17:04:37;;;;;;;14.50;12.90;;;;;;;17.69;68.55;99120.78;434205;1257;95685;-42
2023/05/25 17:14:44;;;;;;;17.30;11.00;;;;;;;17.50;68.79;99123.12;434341;1259;108678;-43
2023/05/25 17:24:51;;;;;;;17.40;11.70;;;;;;;17.37;69.11;99124.67;434233;1260;108106;-42
2023/05/25 17:34:58;;;;;;;18.10;12.90;;;;;;;17.33;69.63;99129.95;434198;1259;95743;-42
2023/05/25 17:45:10;;;;;;;14.70;10.80;;;;;;;17.22;69.70;99129.99;434300;1258;111584;-42
2023/05/25 17:55:16;;;;;;;18.30;12.60;;;;;;;16.99;70.03;99132.13;434278;1254;106426;-44
2023/05/25 18:05:24;;;;;;;22.90;13.20;;;;;;;16.83;70.15;99128.84;434150;1256;95732;-43
2023/05/25 18:15:31;;;;;;;23.60;14.00;;;;;;;16.71;70.50;99131.91;435385;1250;108266;-42
2023/05/25 18:25:39;;;;;;;21.70;15.20;;;;;;;16.46;70.78;99139.50;435327;1250;107955;-42
2023/05/25 18:35:45;;;;;;;24.90;17.10;;;;;;;16.22;71.29;99148.16;435452;1254;96108;-42
2023/05/25 18:45:53;;;;;;;27.60;16.00;;;;;;;15.95;71.39;99159.16;435311;1256;107906;-41
2023/05/25 18:56:00;;;;;;;21.30;16.60;;;;;;;15.79;71.78;99164.91;435467;1253;109398;-43
2023/05/25 19:06:07;;;;;;;25.10;16.30;;;;;;;15.65;72.21;99166.18;435432;1256;95436;-43
2023/05/25 19:16:15;;;;;;;26.30;19.80;;;;;;;15.45;72.56;99178.13;435389;1256;108985;-42
2023/05/25 19:26:23;;;;;;;28.40;17.40;;;;;;;15.21;72.72;99181.92;435323;1251;107397;-45
2023/05/25 19:36:31;;;;;;;29.90;17.00;;;;;;;14.99;73.03;99178.70;435362;1250;95717;-43
2023/05/25 19:46:40;;;;;;;25.00;19.20;;;;;;;14.82;73.43;99184.99;435489;1250;107891;-43
2023/05/25 19:56:47;;;;;;;45.10;25.40;;;;;;;14.57;73.68;99189.46;435498;1251;106677;-43
2023/05/25 20:06:53;;;;;;;28.80;20.80;;;;;;;14.24;73.82;99186.19;435382;1256;95690;-41
2023/05/25 20:17:01;;;;;;;25.70;19.10;;;;;;;13.97;74.15;99183.11;435237;1256;108330;-45
2023/05/25 20:27:08;;;;;;;25.90;15.70;;;;;;;13.91;74.70;99179.76;435249;1250;107400;-41
2023/05/25 20:37:15;;;;;;;22.70;15.80;;;;;;;14.02;75.05;99180.92;436506;1254;95260;-42
2023/05/25 20:47:23;;;;;;;23.20;17.10;;;;;;;14.05;75.30;99180.77;435314;1254;108197;-42
2023/05/25 20:57:30;;;;;;;21.10;14.30;;;;;;;14.07;75.63;99183.77;435148;1256;96104;-43
2023/05/25 21:07:38;;;;;;;21.30;14.80;;;;;;;14.16;76.02;99180.84;435456;1254;108640;-43
2023/05/25 21:17:45;;;;;;;19.60;14.00;;;;;;;14.10;76.03;99187.65;435315;1254;108552;-43
2023/05/25 21:27:52;;;;;;;23.80;15.30;;;;;;;14.01;76.08;99186.66;435220;1249;95638;-42
2023/05/25 21:38:03;;;;;;;19.20;13.30;;;;;;;13.98;76.25;99189.11;435426;1257;108126;-42
2023/05/25 21:48:10;;;;;;;18.80;14.40;;;;;;;13.95;76.30;99189.09;435531;1253;107924;-41
2023/05/25 21:58:19;;;;;;;21.50;14.00;;;;;;;13.94;76.53;99187.84;435416;1254;96546;-42
2023/05/25 22:08:26;;;;;;;24.00;16.50;;;;;;;13.90;76.74;99192.55;435417;1254;107835;-42
2023/05/25 22:18:32;;;;;;;27.00;16.60;;;;;;;13.87;77.08;99192.16;435997;1258;95848;-42
2023/05/25 22:28:39;;;;;;;22.10;13.90;;;;;;;13.88;77.08;99189.16;438377;1259;96098;-41
2023/05/25 22:38:47;;;;;;;23.00;15.10;;;;;;;13.97;77.37;99187.85;437805;1252;108128;-41
2023/05/25 22:48:54;;;;;;;17.60;13.20;;;;;;;14.07;77.43;99189.19;437528;1250;96011;-42
2023/05/25 22:59:01;;;;;;;18.00;12.20;;;;;;;14.22;77.53;99181.86;438800;1250;108747;-42
2023/05/25 23:09:08;;;;;;;18.50;12.00;;;;;;;14.27;77.53;99181.30;437878;1248;108268;-43
2023/05/25 23:39:24;;;;;;;21.70;14.70;;;;;;;13.99;77.53;99190.29;437343;1251;107328;-42
2023/05/25 23:49:31;;;;;;;18.90;12.00;;;;;;;14.01;77.85;99187.77;437851;1248;95283;-42
2023/05/25 23:59:39;;;;;;;19.40;12.90;;;;;;;14.12;77.90;99182.80;437692;1251;108322;-42
